Ashern, Canada
Current Conditions -  °F | °C
As of 3:00 AM on Sunday 23 Nov 2014 (Local Time) from CYWG Reporting Station
Haze Haze  
Wind Chill: -6°   Ceiling: 500
Heat Index:   Visibility: 6mi
Dew Point: -1°   Wind: 17mph
Humidity: 93%   Direction: 180°S
Pressure: 29.32"   Gusts: NA
Location:  51.18°N, 98.33°W
Report Text: CYWG 230900Z 18015KT 6SM BR OVC005 M00/M01 A2932 RMK ST8 PRESRR SLP940
Loading
Personal Weather Stations






























Interactive Weather Map New forecast layout! Learn more

10-Day Weather Forecast

Advertisements
Track Severe Weather on mobile